Alpine Airstrip, AK

10:12 AM AKST on March 02, 2015 (GMT -0900)
Deadhorse Alpine Airstrip | Change Station
CLOSE
Current Station
Airport
Location: Deadhorse Alpine Airstrip,
Elevation: 16 ft
Nearby Weather Stations

Elev 16 ft 70.34 °N, 150.94 °W | Updated 19 minutes ago

Scattered Clouds
Scattered Clouds
-8 °F
Feels Like -31 °F
N
18
Wind Variable Wind from ENE

Today
High -- | Low -- °F
--% Chance of Precip.
Yesterday
High -- | Low -- °F
Precip. -- in
8:27 AM 6:06 PM
Waxing Gibbous, 92% visible
Pressure 30.31 in
Visibility 10.0 miles
Clouds Scattered Clouds 20000 ft
Windchill -31 °F
Dew Point -13 °F
Humidity 77%
Rainfall 0.00 in
Snow Depth Not available.
UV 0 out of 12
Pollen Not available.
Air Quality Not available.
Flu Activity Not available.
METAR PALP 021853Z 06016KT 10SM SCT200 M22/M25 A3031

More Conditions Fewer Conditions

Pressure 30.31 in
Visibility 10.0 miles
Clouds Scattered Clouds 20000 ft
Windchill -31 °F
Dew Point -13 °F
Humidity 77%
Rainfall 0.00 in
Snow Depth Not available.
UV 0 out of 12
Pollen Not available.
Air Quality Not available.
Flu Activity Not available.
METAR PALP 021853Z 06016KT 10SM SCT200 M22/M25 A3031

More Conditions Fewer Conditions

10-Day Weather Forecast

Almanac

Astronomy

Mar. 02, 2015 Rise Set
Actual Time
Civil Twilight
Nautical Twilight
Astronomical Twilight
Moon
Length of Visible Light
Length of Day
Tomorrow will be .
, % of the Moon is Illuminated

Today's Extremes

State Highs State Lows

Community

WunderPhotos

Upload Photos

1,801,914 photos uploaded!

WunderBlogs® & News

Nearby

Air Quality

  Air Quality AQ Index Pollutant
Not available.

Snow Depth

Station Depth Elevation

Earthquake Activity

City Distance Mag. Time & Date
Minimum magnitude displayed is 2.5.

Coastal Water Temperatures

Place Temperature

Nearby Weather Stations